Time;durP1;ratioP1;P1;durP2;ratioP2;P2;SDS_P1;SDS_P2;PMS_P1;PMS_P2;Temp;Humidity;BMP_temperature;BMP_pressure;BME280_temperature;BME280_humidity;BME280_pressure;Samples;Min_cycle;Max_cycle;Signal;HPM_P1;HPM_P2
2021/12/12 00:01:12;;;;;;;178.47;115.90;;;13.70;60.50;;;;;;5250139;28;20052;-40
2021/12/12 00:03:48;;;;;;;169.80;107.67;;;13.70;60.60;;;;;;5232934;28;20119;-37
2021/12/12 00:06:38;;;;;;;171.97;107.10;;;13.70;60.30;;;;;;5249724;28;20051;-36
2021/12/12 00:09:35;;;;;;;197.20;120.80;;;13.70;60.40;;;;;;5232462;28;20398;-34
2021/12/12 00:12:10;;;;;;;161.10;107.30;;;13.70;60.60;;;;;;5165701;28;20234;-33
2021/12/12 00:14:43;;;;;;;156.27;103.93;;;13.70;60.50;;;;;;5165559;28;20055;-33
2021/12/12 00:17:14;;;;;;;152.85;102.88;;;13.70;60.50;;;;;;5165631;28;20055;-39
2021/12/12 00:19:45;;;;;;;161.67;106.37;;;13.60;60.50;;;;;;5165829;28;20501;-40
2021/12/12 00:22:21;;;;;;;162.63;106.50;;;13.60;60.50;;;;;;5165588;28;20046;-33
2021/12/12 00:24:52;;;;;;;152.80;106.10;;;13.60;60.60;;;;;;5165220;28;20100;-37
2021/12/12 00:27:23;;;;;;;157.30;108.33;;;13.60;60.40;;;;;;5165448;28;20046;-31
2021/12/12 00:30:01;;;;;;;148.57;99.77;;;13.60;60.50;;;;;;5148630;28;20450;-38
2021/12/12 00:32:34;;;;;;;155.97;100.70;;;13.60;60.50;;;;;;5165066;28;20085;-36
2021/12/12 00:35:15;;;;;;;158.07;102.10;;;13.60;60.60;;;;;;5164662;28;20137;-34
2021/12/12 00:37:46;;;;;;;166.70;106.73;;;13.60;60.80;;;;;;5164840;28;20133;-34
2021/12/12 00:40:21;;;;;;;162.40;104.80;;;13.60;60.70;;;;;;5165281;28;20569;-38
2021/12/12 00:42:54;;;;;;;164.90;109.13;;;13.60;60.80;;;;;;5165191;28;20064;-35
2021/12/12 00:45:25;;;;;;;196.55;121.82;;;13.50;61.10;;;;;;5148651;28;20095;-32
2021/12/12 00:47:56;;;;;;;170.60;110.53;;;13.50;61.90;;;;;;5166437;28;20075;-35
2021/12/12 00:50:39;;;;;;;170.33;111.27;;;13.50;62.50;;;;;;5230468;28;20482;-41
2021/12/12 00:53:10;;;;;;;183.98;114.75;;;13.50;62.20;;;;;;5249189;28;20051;-39
2021/12/12 00:55:43;;;;;;;174.57;111.20;;;13.60;61.70;;;;;;5248815;28;20056;-38
2021/12/12 00:58:16;;;;;;;168.20;110.17;;;13.60;61.40;;;;;;5231165;28;20128;-35
2021/12/12 01:01:15;;;;;;;170.13;111.10;;;13.60;61.40;;;;;;5249026;28;20036;-37
2021/12/12 01:04:00;;;;;;;169.80;110.83;;;13.60;61.30;;;;;;5244897;28;20052;-38
2021/12/12 01:06:31;;;;;;;169.83;105.53;;;13.60;61.20;;;;;;5231018;28;20409;-32
2021/12/12 01:09:11;;;;;;;166.13;104.87;;;13.60;61.40;;;;;;5247702;28;20045;-35
2021/12/12 01:11:46;;;;;;;170.60;108.73;;;13.60;61.10;;;;;;5248655;28;20052;-36
2021/12/12 01:14:20;;;;;;;159.13;104.50;;;13.60;61.10;;;;;;5263535;28;20090;-32
2021/12/12 01:16:58;;;;;;;164.97;103.60;;;13.60;61.20;;;;;;5229799;28;20082;-34
2021/12/12 01:19:39;;;;;;;158.53;105.47;;;13.60;61.20;;;;;;5248493;28;20131;-34
2021/12/12 01:22:17;;;;;;;144.83;95.23;;;13.60;61.20;;;;;;5248456;28;20123;-35
2021/12/12 01:24:50;;;;;;;135.50;92.80;;;13.60;61.20;;;;;;5248700;28;20045;-34
2021/12/12 01:27:21;;;;;;;;;;;13.60;61.10;;;;;;5247927;28;20048;-37
2021/12/12 01:29:52;;;;;;;138.53;93.87;;;13.50;61.10;;;;;;5230861;28;19920;-38
2021/12/12 01:32:28;;;;;;;139.17;95.27;;;13.50;61.20;;;;;;5248080;28;20041;-38
2021/12/12 01:34:59;;;;;;;139.83;90.57;;;13.50;61.20;;;;;;5247937;28;20116;-36
2021/12/12 01:40:11;;;;;;;154.90;96.70;;;13.50;61.30;;;;;;5247617;28;20075;-33
2021/12/12 01:42:46;;;;;;;147.83;98.37;;;13.50;61.90;;;;;;5249238;28;20064;-34
2021/12/12 01:45:22;;;;;;;151.07;97.07;;;13.50;61.50;;;;;;5248168;28;20470;-38
2021/12/12 01:47:57;;;;;;;154.63;98.23;;;13.50;61.80;;;;;;5248236;28;20481;-38
2021/12/12 01:50:40;;;;;;;153.77;97.40;;;13.40;62.60;;;;;;5248168;28;20052;-32
2021/12/12 01:53:12;;;;;;;148.02;93.70;;;13.50;63.20;;;;;;5248637;28;20112;-40
2021/12/12 01:56:12;;;;;;;160.10;98.07;;;13.50;63.00;;;;;;5246891;28;20044;-34
2021/12/12 01:58:43;;;;;;;153.67;97.03;;;13.50;62.70;;;;;;5239524;28;20135;-32
2021/12/12 02:01:27;;;;;;;160.77;99.13;;;13.50;62.50;;;;;;5213271;28;20405;-36
2021/12/12 02:04:01;;;;;;;166.13;98.90;;;13.50;62.70;;;;;;5230133;28;20051;-30
2021/12/12 02:06:32;;;;;;;169.80;101.37;;;13.50;62.70;;;;;;5227702;28;20623;-33
2021/12/12 02:09:05;;;;;;;169.07;105.07;;;13.50;62.70;;;;;;5229318;28;20509;-35
2021/12/12 02:11:36;;;;;;;164.43;99.10;;;13.60;62.70;;;;;;5229601;28;20389;-36
2021/12/12 02:14:11;;;;;;;172.27;103.60;;;13.60;62.60;;;;;;5229105;28;20129;-36
2021/12/12 02:17:00;;;;;;;175.20;106.93;;;13.60;62.70;;;;;;5229744;28;20485;-32
2021/12/12 02:36:42;;;;;;;156.90;100.77;;;13.60;62.10;;;;;;5114079;29;20437;-37
2021/12/12 02:39:15;;;;;;;162.47;101.97;;;13.60;62.40;;;;;;5110364;29;20062;-36
2021/12/12 02:41:49;;;;;;;157.47;98.87;;;13.60;62.60;;;;;;5126794;29;20048;-33
2021/12/12 02:44:23;;;;;;;;;;;13.60;63.00;;;;;;5126941;29;20051;-40
2021/12/12 02:46:57;;;;;;;;;;;13.60;64.10;;;;;;5127525;29;19929;-35
2021/12/12 02:49:53;;;;;;;152.35;91.88;;;13.60;64.10;;;;;;5126104;29;19922;-38
2021/12/12 02:52:29;;;;;;;162.13;105.33;;;13.60;63.90;;;;;;5098733;29;20062;-38
2021/12/12 02:55:01;;;;;;;137.90;86.90;;;13.60;63.30;;;;;;5126553;29;20532;-37
2021/12/12 02:57:32;;;;;;;136.40;84.72;;;13.60;63.00;;;;;;5110896;29;20444;-35
2021/12/12 03:00:06;;;;;;;125.73;82.10;;;13.60;63.10;;;;;;5126227;28;20047;-41
2021/12/12 03:02:45;;;;;;;132.70;87.27;;;13.60;62.70;;;;;;5211956;28;20055;-32
2021/12/12 03:05:17;;;;;;;141.70;88.40;;;13.60;62.70;;;;;;5250395;28;20490;-34
2021/12/12 03:07:48;;;;;;;137.85;83.72;;;13.60;62.60;;;;;;5233539;28;20076;-39
2021/12/12 03:10:23;;;;;;;128.23;79.97;;;13.60;62.50;;;;;;5233223;28;20068;-39
2021/12/12 03:12:54;;;;;;;124.13;79.87;;;13.60;62.50;;;;;;5250761;28;20053;-33
2021/12/12 03:15:29;;;;;;;125.67;79.10;;;13.60;62.50;;;;;;5233306;28;20045;-38
2021/12/12 03:18:01;;;;;;;119.43;76.17;;;13.60;62.40;;;;;;5233313;28;20524;-37
2021/12/12 03:20:41;;;;;;;115.83;74.33;;;13.60;62.20;;;;;;5251079;28;20123;-35
2021/12/12 03:23:21;;;;;;;116.67;74.10;;;13.60;62.30;;;;;;5250517;28;20123;-36
2021/12/12 03:25:59;;;;;;;105.60;70.67;;;13.60;62.30;;;;;;5250278;28;20068;-34
2021/12/12 03:28:31;;;;;;;99.60;67.33;;;13.60;62.20;;;;;;5232958;28;20119;-33
2021/12/12 03:31:05;;;;;;;100.70;66.90;;;13.60;62.20;;;;;;5250306;28;20040;-40
2021/12/12 03:33:36;;;;;;;97.90;66.60;;;13.60;62.70;;;;;;5250489;28;20044;-34
2021/12/12 03:36:09;;;;;;;92.87;63.97;;;13.60;62.30;;;;;;5232866;28;20098;-38
2021/12/12 03:38:47;;;;;;;92.90;62.50;;;13.60;62.30;;;;;;5211764;28;20128;-39
2021/12/12 03:41:20;;;;;;;87.03;59.93;;;13.50;62.80;;;;;;5230044;28;20080;-35
2021/12/12 03:43:52;;;;;;;87.10;59.03;;;13.50;63.70;;;;;;5229633;28;20052;-39
2021/12/12 03:46:23;;;;;;;82.37;56.30;;;13.50;63.70;;;;;;5229696;28;20453;-40
2021/12/12 03:48:55;;;;;;;81.43;54.10;;;13.60;63.50;;;;;;5228434;28;20534;-34
2021/12/12 03:51:27;;;;;;;85.53;57.93;;;13.60;63.20;;;;;;5228631;28;20045;-33
2021/12/12 03:53:59;;;;;;;79.68;53.58;;;13.60;63.10;;;;;;5228298;28;20116;-35
2021/12/12 03:56:29;;;;;;;86.67;57.90;;;13.60;62.90;;;;;;5229454;28;20116;-36
2021/12/12 03:59:01;;;;;;;85.87;56.67;;;13.60;62.80;;;;;;5228991;28;20132;-37
2021/12/12 04:01:37;;;;;;;88.90;60.03;;;13.70;62.90;;;;;;5229583;28;20121;-37
2021/12/12 04:04:22;;;;;;;88.30;58.50;;;13.70;62.70;;;;;;5229492;28;20402;-31
2021/12/12 04:06:55;;;;;;;90.77;57.30;;;13.70;62.70;;;;;;5229100;28;20044;-32
2021/12/12 04:09:26;;;;;;;75.47;51.53;;;13.70;62.70;;;;;;5229126;28;20119;-34
2021/12/12 04:12:02;;;;;;;85.57;55.90;;;13.60;62.50;;;;;;5228818;28;20485;-40
2021/12/12 04:14:33;;;;;;;80.60;53.43;;;13.60;62.70;;;;;;5229215;28;20044;-33
2021/12/12 04:17:07;;;;;;;77.70;53.10;;;13.70;62.60;;;;;;5228911;28;20438;-36
2021/12/12 04:19:39;;;;;;;76.07;53.73;;;13.70;62.80;;;;;;5228646;28;20140;-34
2021/12/12 04:22:10;;;;;;;87.03;55.57;;;13.60;62.70;;;;;;5228643;28;20045;-35
2021/12/12 04:24:43;;;;;;;82.60;56.40;;;13.60;62.90;;;;;;5227362;28;20076;-36
2021/12/12 04:27:15;;;;;;;86.75;59.10;;;13.60;62.80;;;;;;5227784;28;20052;-35
2021/12/12 04:29:47;;;;;;;85.40;56.10;;;13.60;62.90;;;;;;5227658;28;20051;-36
2021/12/12 04:32:24;;;;;;;90.00;62.17;;;13.60;62.90;;;;;;5227499;28;20056;-37
2021/12/12 04:35:16;;;;;;;82.73;56.33;;;13.60;63.10;;;;;;5228475;28;20451;-39
2021/12/12 04:37:47;;;;;;;86.67;58.00;;;13.60;63.30;;;;;;5228933;28;20053;-34
2021/12/12 04:40:20;;;;;;;84.93;58.03;;;13.60;63.40;;;;;;5249090;28;20135;-35
2021/12/12 04:42:52;;;;;;;87.77;60.37;;;13.60;63.70;;;;;;5230915;28;20112;-37
2021/12/12 04:45:49;;;;;;;;;;;13.60;64.70;;;;;;5231869;28;20075;-40
2021/12/12 04:51:29;;;;;;;84.20;56.93;;;13.60;64.60;;;;;;5249120;28;20045;-37
2021/12/12 04:54:11;;;;;;;81.87;53.97;;;13.70;64.50;;;;;;5216286;28;20497;-38
2021/12/12 04:56:56;;;;;;;83.87;57.90;;;13.70;64.20;;;;;;5249062;28;20068;-35
2021/12/12 05:00:05;;;;;;;95.03;68.13;;;13.70;63.90;;;;;;5249356;28;20045;-37
2021/12/12 05:02:48;;;;;;;88.53;59.87;;;13.70;64.10;;;;;;5164351;28;20659;-34
2021/12/12 05:05:23;;;;;;;105.37;73.50;;;13.70;64.00;;;;;;5164330;28;20047;-30
2021/12/12 05:08:15;;;;;;;110.20;73.17;;;13.70;64.20;;;;;;5166076;28;20046;-31
2021/12/12 05:11:04;;;;;;;107.97;70.80;;;13.70;64.20;;;;;;5169364;28;20046;-32
2021/12/12 05:13:41;;;;;;;111.53;69.23;;;13.70;64.20;;;;;;5168437;28;20050;-29
2021/12/12 05:16:16;;;;;;;94.00;62.60;;;13.70;64.30;;;;;;5184251;28;20050;-37
2021/12/12 05:18:50;;;;;;;92.10;59.40;;;13.70;64.20;;;;;;5168224;28;20458;-34
2021/12/12 05:21:26;;;;;;;103.83;69.57;;;13.70;64.40;;;;;;5168372;28;20049;-33
2021/12/12 05:23:59;;;;;;;94.13;62.47;;;13.70;64.40;;;;;;5166292;28;20081;-33
2021/12/12 05:26:43;;;;;;;91.90;58.90;;;13.80;64.40;;;;;;5168585;28;20061;-33
2021/12/12 05:29:26;;;;;;;89.07;58.43;;;13.80;64.50;;;;;;5169403;28;20080;-33
2021/12/12 05:31:59;;;;;;;105.23;69.87;;;13.80;64.50;;;;;;5168053;28;20096;-38
2021/12/12 05:34:34;;;;;;;106.05;69.20;;;13.80;64.50;;;;;;5168088;28;20120;-35
2021/12/12 05:37:05;;;;;;;105.70;68.43;;;13.80;64.80;;;;;;5151725;28;20065;-36
2021/12/12 05:39:36;;;;;;;113.13;73.80;;;13.80;65.20;;;;;;5232156;28;20451;-36
2021/12/12 05:42:07;;;;;;;124.80;77.97;;;13.80;65.40;;;;;;5248461;28;20053;-37
2021/12/12 05:44:38;;;;;;;119.50;78.07;;;13.70;65.40;;;;;;5247188;28;20510;-34
2021/12/12 05:47:09;;;;;;;113.93;71.07;;;13.70;65.50;;;;;;5230348;28;20137;-38
2021/12/12 05:49:41;;;;;;;107.53;68.57;;;13.70;65.60;;;;;;5247013;28;20044;-38
2021/12/12 05:52:20;;;;;;;105.50;64.47;;;13.70;65.70;;;;;;5248081;28;20072;-35
2021/12/12 05:54:51;;;;;;;97.13;63.07;;;13.70;65.70;;;;;;5249656;28;20123;-36
2021/12/12 05:57:25;;;;;;;100.43;64.67;;;13.70;65.80;;;;;;5251131;28;20044;-31
2021/12/12 05:59:56;;;;;;;96.13;63.30;;;13.70;65.90;;;;;;5250220;28;20040;-38
2021/12/12 06:02:27;;;;;;;90.23;59.03;;;13.70;65.90;;;;;;5250725;28;20051;-39
2021/12/12 06:04:58;;;;;;;91.37;61.03;;;13.70;66.10;;;;;;5250203;28;20485;-36
2021/12/12 06:07:29;;;;;;;91.50;59.13;;;13.70;65.90;;;;;;5252262;28;20050;-38
2021/12/12 06:10:08;;;;;;;85.17;55.53;;;13.70;66.20;;;;;;5250874;28;20055;-35
2021/12/12 06:12:38;;;;;;;86.47;56.27;;;13.70;66.30;;;;;;5250519;28;20046;-34
2021/12/12 06:15:14;;;;;;;86.23;54.90;;;13.70;66.40;;;;;;5233870;28;20064;-37
2021/12/12 06:17:46;;;;;;;87.70;56.53;;;13.70;66.60;;;;;;5248692;28;20064;-31
2021/12/12 06:20:18;;;;;;;83.60;55.15;;;13.70;66.60;;;;;;5248824;28;20114;-40
2021/12/12 06:22:50;;;;;;;83.77;56.00;;;13.70;66.50;;;;;;5232406;28;20047;-39
2021/12/12 06:25:21;;;;;;;90.33;56.27;;;13.70;66.60;;;;;;5262856;28;20044;-37
2021/12/12 06:27:52;;;;;;;88.70;55.87;;;13.70;66.60;;;;;;5270699;28;20168;-30
2021/12/12 06:30:23;;;;;;;88.60;57.87;;;13.70;67.00;;;;;;5269640;28;20044;-37
2021/12/12 06:32:54;;;;;;;93.57;60.53;;;13.80;67.20;;;;;;5269816;28;20044;-34
2021/12/12 06:35:25;;;;;;;84.93;56.30;;;13.80;67.10;;;;;;5270678;28;20044;-32
2021/12/12 06:38:01;;;;;;;84.07;54.13;;;13.90;67.00;;;;;;5268989;28;20754;-36
2021/12/12 06:40:32;;;;;;;86.63;60.27;;;14.00;66.80;;;;;;5291765;28;20039;-37
2021/12/12 06:43:04;;;;;;;;;;;14.20;67.10;;;;;;5291840;28;20085;-38
2021/12/12 06:45:36;;;;;;;;;;;14.30;67.00;;;;;;5292111;28;19926;-33
2021/12/12 06:48:08;;;;;;;;;;;14.40;66.70;;;;;;5267626;28;19928;-34
2021/12/12 06:50:39;;;;;;;;;;;14.50;66.60;;;;;;5252963;28;19924;-35
2021/12/12 06:53:11;;;;;;;;;;;14.60;66.60;;;;;;5269264;28;19935;-40
2021/12/12 06:55:44;;;;;;;;;;;14.60;66.50;;;;;;5267400;28;19955;-41
2021/12/12 06:58:16;;;;;;;;;;;14.70;66.60;;;;;;5286479;28;19972;-40
2021/12/12 07:00:48;;;;;;;;;;;14.70;66.60;;;;;;5274397;28;19924;-38
2021/12/12 07:03:19;;;;;;;;;;;14.70;66.60;;;;;;5276133;28;20011;-38
2021/12/12 07:05:50;;;;;;;;;;;14.60;66.60;;;;;;5266335;28;19919;-41
2021/12/12 07:08:21;;;;;;;;;;;14.70;66.80;;;;;;5270144;28;19950;-41
2021/12/12 07:10:52;;;;;;;;;;;14.60;66.80;;;;;;5284948;28;20384;-40
2021/12/12 07:13:23;;;;;;;;;;;14.60;66.80;;;;;;5262940;28;19919;-37
2021/12/12 07:15:55;;;;;;;;;;;14.60;66.80;;;;;;5286496;28;19919;-39
2021/12/12 07:18:27;;;;;;;;;;;14.60;67.10;;;;;;5287404;28;19919;-34
2021/12/12 07:20:59;;;;;;;;;;;14.60;67.20;;;;;;5287184;28;19919;-36
2021/12/12 07:23:30;;;;;;;;;;;14.60;67.40;;;;;;5275670;28;19924;-38
2021/12/12 07:26:02;;;;;;;;;;;14.50;67.40;;;;;;5248403;28;19956;-32
2021/12/12 07:28:33;;;;;;;;;;;14.50;67.50;;;;;;5269145;28;19926;-34
2021/12/12 07:31:05;;;;;;;;;;;14.40;67.60;;;;;;5266549;28;19943;-36
2021/12/12 07:33:36;;;;;;;;;;;14.40;67.80;;;;;;5257024;28;20336;-37
2021/12/12 07:36:09;;;;;;;68.10;50.80;;;14.40;67.90;;;;;;5249769;28;19924;-41
2021/12/12 07:38:44;;;;;;;62.78;45.50;;;14.20;67.60;;;;;;5261353;28;20489;-39
2021/12/12 07:41:18;;;;;;;83.33;57.17;;;11.70;71.40;;;;;;5253872;28;20071;-34
2021/12/12 07:43:49;;;;;;;75.20;53.20;;;10.40;75.00;;;;;;5253323;28;20389;-37
2021/12/12 07:46:20;;;;;;;62.83;41.40;;;9.70;77.30;;;;;;5271399;28;20138;-34
2021/12/12 07:48:51;;;;;;;55.97;35.37;;;9.30;78.30;;;;;;5252096;28;20123;-34
2021/12/12 07:51:24;;;;;;;58.47;36.90;;;9.00;79.20;;;;;;5253386;28;20065;-33
2021/12/12 07:53:57;;;;;;;67.30;41.93;;;8.90;79.70;;;;;;5271335;28;20052;-37
2021/12/12 07:56:29;;;;;;;64.07;39.00;;;8.70;80.10;;;;;;5271145;28;20446;-34
2021/12/12 07:59:02;;;;;;;60.90;39.60;;;8.60;80.30;;;;;;5269727;28;20043;-36
2021/12/12 08:01:34;;;;;;;65.67;38.13;;;8.50;80.70;;;;;;5271249;28;20040;-36
2021/12/12 08:04:05;;;;;;;63.37;39.73;;;8.50;80.80;;;;;;5252442;28;20558;-40
2021/12/12 08:06:38;;;;;;;73.97;45.77;;;8.40;81.20;;;;;;5253193;28;20067;-39
2021/12/12 08:09:09;;;;;;;68.33;40.77;;;8.40;82.00;;;;;;5270682;28;20047;-31
2021/12/12 08:12:00;;;;;;;61.33;37.83;;;8.30;82.00;;;;;;5253045;28;20397;-38
2021/12/12 08:14:31;;;;;;;67.83;39.60;;;8.30;81.60;;;;;;5206420;28;20514;-38
2021/12/12 08:17:03;;;;;;;68.10;40.43;;;8.20;82.10;;;;;;5206188;28;20579;-41
2021/12/12 08:19:35;;;;;;;74.53;46.83;;;8.80;82.00;;;;;;5205085;28;20139;-36
2021/12/12 08:22:08;;;;;;;71.40;43.00;;;9.50;80.70;;;;;;5205693;28;20096;-39
2021/12/12 08:24:39;;;;;;;68.87;43.20;;;10.20;79.40;;;;;;5205082;28;20067;-35
2021/12/12 08:27:10;;;;;;;65.00;39.47;;;10.70;78.00;;;;;;5205558;28;20486;-34
2021/12/12 08:29:41;;;;;;;64.10;38.87;;;11.10;77.00;;;;;;5206316;28;20061;-34
2021/12/12 08:32:14;;;;;;;61.33;38.20;;;11.50;76.10;;;;;;5205456;28;20096;-41
2021/12/12 08:34:45;;;;;;;67.60;40.73;;;11.80;75.40;;;;;;5205483;28;20053;-36
2021/12/12 08:37:16;;;;;;;68.87;43.17;;;12.00;74.90;;;;;;5180470;28;20455;-38
2021/12/12 08:39:47;;;;;;;67.23;42.33;;;12.10;74.40;;;;;;5212191;28;20104;-37
2021/12/12 08:42:18;;;;;;;64.43;40.80;;;12.30;74.10;;;;;;5196922;28;20046;-36
2021/12/12 08:44:49;;;;;;;67.30;42.13;;;12.40;73.80;;;;;;5200580;28;20052;-37
2021/12/12 08:47:20;;;;;;;68.80;44.17;;;12.50;73.70;;;;;;5282441;28;20489;-40
2021/12/12 08:49:52;;;;;;;70.40;43.43;;;12.60;73.60;;;;;;5264189;28;20051;-36
2021/12/12 08:52:31;;;;;;;71.00;42.90;;;12.70;73.50;;;;;;5279032;28;20069;-33
2021/12/12 08:55:08;;;;;;;70.53;48.33;;;12.80;73.30;;;;;;5263740;28;20366;-38
2021/12/12 08:57:46;;;;;;;74.60;46.30;;;12.80;73.10;;;;;;5283355;28;20115;-38
2021/12/12 09:00:18;;;;;;;65.87;43.20;;;12.90;72.90;;;;;;5245989;28;20118;-40
2021/12/12 09:02:50;;;;;;;65.35;42.75;;;13.00;72.80;;;;;;5283935;28;20164;-36
2021/12/12 09:05:25;;;;;;;69.17;41.93;;;13.00;72.70;;;;;;5246675;28;20054;-41
2021/12/12 09:08:00;;;;;;;77.60;47.33;;;13.10;72.70;;;;;;5245265;28;20065;-37
2021/12/12 09:10:41;;;;;;;70.00;45.47;;;13.10;72.70;;;;;;5258471;28;20503;-38
2021/12/12 09:13:16;;;;;;;121.40;69.43;;;13.10;72.50;;;;;;5249778;28;20044;-35
2021/12/12 09:15:59;;;;;;;77.13;50.87;;;13.10;72.60;;;;;;5249251;28;20044;-39
2021/12/12 09:18:46;;;;;;;72.35;47.72;;;13.20;72.80;;;;;;5248704;28;20059;-40
2021/12/12 09:21:32;;;;;;;73.37;49.00;;;13.20;72.80;;;;;;5236459;28;20055;-38
2021/12/12 09:24:11;;;;;;;110.00;67.83;;;13.20;73.00;;;;;;5282948;28;20035;-35
2021/12/12 09:26:49;;;;;;;93.97;64.57;;;13.30;72.90;;;;;;5270262;28;20071;-38
2021/12/12 09:29:41;;;;;;;83.90;52.83;;;13.20;73.00;;;;;;5285847;28;20123;-35
2021/12/12 09:32:17;;;;;;;72.70;48.77;;;13.20;72.90;;;;;;5241367;28;20122;-33
2021/12/12 09:35:07;;;;;;;73.70;48.03;;;13.30;73.00;;;;;;5259036;28;20113;-34
2021/12/12 09:37:49;;;;;;;74.20;49.97;;;13.30;72.70;;;;;;5247030;28;20511;-34
2021/12/12 09:40:47;;;;;;;71.80;48.70;;;13.40;72.70;;;;;;5220647;28;20847;-38
2021/12/12 09:43:56;;;;;;;66.70;43.93;;;13.40;72.50;;;;;;5224473;28;20501;-39
2021/12/12 09:46:40;;;;;;;69.03;44.53;;;13.50;72.50;;;;;;5225614;28;20565;-35
2021/12/12 09:52:48;;;;;;;72.43;47.03;;;13.50;72.20;;;;;;5222545;28;20099;-38
2021/12/12 09:55:41;;;;;;;70.40;45.43;;;13.60;72.30;;;;;;5223399;28;20056;-33
2021/12/12 09:58:34;;;;;;;71.05;46.47;;;13.60;72.30;;;;;;5233395;28;20067;-38
2021/12/12 10:01:09;;;;;;;69.57;43.95;;;13.60;72.30;;;;;;5221222;28;20127;-42
2021/12/12 10:03:54;;;;;;;72.37;50.37;;;13.60;72.40;;;;;;5227469;28;20441;-41
2021/12/12 10:06:49;;;;;;;64.67;42.10;;;13.60;72.40;;;;;;5238193;28;20083;-35
2021/12/12 10:09:36;;;;;;;69.77;43.90;;;13.60;72.40;;;;;;5238042;28;20398;-36
2021/12/12 10:12:09;;;;;;;66.30;43.97;;;13.60;72.20;;;;;;5230139;28;20065;-38
2021/12/12 10:14:58;;;;;;;68.60;44.33;;;13.60;72.50;;;;;;5238211;28;20151;-40
2021/12/12 10:18:06;;;;;;;69.07;43.90;;;13.50;72.30;;;;;;5231906;28;20402;-35
2021/12/12 10:20:48;;;;;;;73.03;46.00;;;13.60;72.40;;;;;;5214714;28;20388;-35
2021/12/12 10:23:49;;;;;;;76.63;46.87;;;13.60;72.70;;;;;;5208571;28;20053;-36
2021/12/12 10:26:31;;;;;;;67.67;42.43;;;13.60;72.30;;;;;;5161053;28;20420;-38
2021/12/12 10:29:13;;;;;;;69.25;44.88;;;13.50;72.50;;;;;;5158813;28;20504;-37
2021/12/12 10:32:20;;;;;;;75.10;47.93;;;13.60;72.50;;;;;;5145157;28;20073;-35
2021/12/12 10:35:25;;;;;;;72.40;45.40;;;13.50;72.50;;;;;;5148809;28;20432;-36
2021/12/12 10:38:14;;;;;;;73.97;45.73;;;13.60;72.70;;;;;;5160666;28;20085;-33
2021/12/12 10:40:47;;;;;;;77.27;49.57;;;13.50;72.80;;;;;;5145832;28;20117;-38
2021/12/12 10:43:46;;;;;;;82.47;54.07;;;13.50;72.90;;;;;;5164853;28;20058;-41
2021/12/12 10:46:30;;;;;;;75.47;47.63;;;13.60;73.10;;;;;;5179174;28;20087;-38
2021/12/12 10:49:26;;;;;;;98.37;57.40;;;13.50;73.00;;;;;;5185121;28;20069;-34
2021/12/12 10:52:29;;;;;;;76.00;47.70;;;13.50;73.10;;;;;;5187465;28;20125;-37
2021/12/12 10:55:30;;;;;;;70.77;45.20;;;13.50;73.30;;;;;;5028498;29;20049;-40
2021/12/12 10:58:04;;;;;;;70.63;44.53;;;13.50;73.00;;;;;;5013416;29;20547;-36
2021/12/12 11:00:45;;;;;;;68.82;44.63;;;13.50;73.60;;;;;;5014058;29;20065;-42
2021/12/12 11:03:18;;;;;;;70.00;45.10;;;13.50;73.20;;;;;;5013951;29;20057;-35
2021/12/12 11:06:15;;;;;;;74.50;45.78;;;13.60;73.30;;;;;;5038831;29;20140;-33
2021/12/12 11:09:03;;;;;;;76.70;47.27;;;13.60;73.30;;;;;;4990993;29;20066;-40
2021/12/12 11:11:45;;;;;;;73.27;45.17;;;13.60;73.50;;;;;;4991053;29;20058;-31
2021/12/12 11:14:21;;;;;;;188.93;93.77;;;13.60;73.30;;;;;;4976383;29;20445;-39
2021/12/12 11:16:55;;;;;;;82.73;52.07;;;13.60;73.40;;;;;;4975625;29;20062;-42
2021/12/12 11:19:44;;;;;;;78.27;49.67;;;13.60;73.20;;;;;;4975780;29;20106;-40
2021/12/12 11:22:16;;;;;;;72.80;46.50;;;13.60;73.30;;;;;;4977585;29;20055;-38
2021/12/12 11:24:50;;;;;;;77.18;49.03;;;13.60;73.40;;;;;;4990827;29;20106;-38
2021/12/12 11:27:30;;;;;;;72.83;47.27;;;13.60;73.40;;;;;;4990444;29;20079;-37
2021/12/12 11:30:11;;;;;;;74.30;47.47;;;13.60;73.40;;;;;;4990302;29;20247;-35
2021/12/12 11:32:43;;;;;;;69.53;45.27;;;13.60;73.40;;;;;;5022667;29;20121;-34
2021/12/12 11:35:17;;;;;;;73.37;45.47;;;13.60;73.30;;;;;;5013648;29;20088;-35
2021/12/12 11:37:55;;;;;;;87.27;54.47;;;13.60;73.10;;;;;;5032639;29;20053;-38
2021/12/12 11:40:33;;;;;;;75.87;47.87;;;13.70;73.00;;;;;;5067942;29;20467;-36
2021/12/12 11:43:32;;;;;;;83.87;53.83;;;13.70;72.90;;;;;;5052826;29;20185;-34
2021/12/12 11:46:28;;;;;;;84.50;50.53;;;13.70;72.80;;;;;;5092102;29;20077;-38
2021/12/12 11:49:43;;;;;;;73.93;46.13;;;13.80;72.90;;;;;;5091314;29;20107;-35
2021/12/12 11:52:36;;;;;;;73.93;47.40;;;13.80;72.70;;;;;;5028525;29;20053;-38
2021/12/12 12:01:17;;;;;;;63.23;40.97;;;13.80;72.00;;;;;;5259831;27;1420932;-39
2021/12/12 12:04:16;;;;;;;;;;;10.10;80.50;;;;;;5288494;28;20123;-30
2021/12/12 12:07:02;;;;;;;68.23;43.40;;;9.70;81.70;;;;;;5287669;28;20315;-40
2021/12/12 12:09:54;;;;;;;88.83;55.37;;;9.40;82.80;;;;;;5270404;28;20044;-33
2021/12/12 12:13:01;;;;;;;77.77;48.00;;;9.30;83.60;;;;;;5287726;28;20477;-33
2021/12/12 12:15:49;;;;;;;91.93;55.23;;;9.10;84.10;;;;;;5247756;28;20057;-33
2021/12/12 12:18:38;;;;;;;75.90;43.33;;;9.00;84.40;;;;;;5225283;28;20064;-33
2021/12/12 12:22:03;;;;;;;78.83;47.50;;;9.10;84.10;;;;;;5225000;28;20474;-36
2021/12/12 12:24:44;;;;;;;73.10;47.70;;;9.00;83.90;;;;;;5201786;28;20053;-35
2021/12/12 12:27:24;;;;;;;73.20;44.97;;;9.00;83.60;;;;;;5185331;28;20080;-37
2021/12/12 12:30:20;;;;;;;77.67;45.33;;;9.00;83.70;;;;;;5184640;28;20061;-36
2021/12/12 12:33:15;;;;;;;76.97;48.20;;;8.90;83.90;;;;;;5200465;28;20057;-29
2021/12/12 12:36:05;;;;;;;84.60;52.13;;;8.90;84.30;;;;;;5197543;28;20108;-34
2021/12/12 12:39:01;;;;;;;87.67;54.63;;;8.80;84.90;;;;;;5167322;28;20053;-34
2021/12/12 12:42:09;;;;;;;84.20;53.27;;;8.80;84.60;;;;;;5189662;28;20160;-30
2021/12/12 12:45:10;;;;;;;88.37;54.93;;;8.80;85.00;;;;;;5195372;28;20129;-34
2021/12/12 12:48:00;;;;;;;77.60;49.57;;;8.70;84.90;;;;;;5195010;28;20061;-42
2021/12/12 12:50:31;;;;;;;77.27;46.30;;;8.70;85.10;;;;;;5197116;28;20238;-31
2021/12/12 12:53:40;;;;;;;70.83;44.77;;;8.70;85.80;;;;;;5181558;28;20120;-30
2021/12/12 12:56:48;;;;;;;69.50;43.43;;;8.60;86.50;;;;;;5167838;28;20144;-34
2021/12/12 12:59:55;;;;;;;65.73;41.67;;;8.60;86.30;;;;;;5163661;28;20051;-35
2021/12/12 13:02:39;;;;;;;65.23;38.03;;;8.60;86.40;;;;;;5191600;28;20049;-36
2021/12/12 13:05:34;;;;;;;64.53;38.57;;;8.50;86.10;;;;;;5195367;28;20045;-37
2021/12/12 13:08:44;;;;;;;76.30;47.00;;;8.50;86.30;;;;;;5180566;28;20046;-37
2021/12/12 13:11:22;;;;;;;85.30;48.27;;;8.40;86.20;;;;;;5185811;28;20513;-37
2021/12/12 13:14:04;;;;;;;90.97;53.30;;;8.40;86.00;;;;;;5184060;28;20042;-35
2021/12/12 13:16:48;;;;;;;98.60;56.85;;;8.40;86.40;;;;;;5186154;28;20053;-37
2021/12/12 13:19:41;;;;;;;88.80;50.50;;;8.30;86.30;;;;;;5185871;28;20369;-42
2021/12/12 13:22:25;;;;;;;73.35;43.83;;;8.30;86.80;;;;;;5181311;28;20468;-40
2021/12/12 13:24:57;;;;;;;;;;;8.30;86.70;;;;;;5184226;28;20065;-37
2021/12/12 13:28:02;;;;;;;;;;;8.30;86.50;;;;;;5185966;28;19925;-41
2021/12/12 13:31:00;;;;;;;76.70;43.10;;;8.20;86.70;;;;;;5185512;28;19928;-34
2021/12/12 13:33:47;;;;;;;71.63;42.47;;;8.20;86.50;;;;;;5180568;28;20499;-40
2021/12/12 13:36:35;;;;;;;65.20;39.17;;;8.20;86.80;;;;;;5184494;28;20095;-36
2021/12/12 13:39:25;;;;;;;72.07;41.40;;;8.10;86.70;;;;;;5183400;28;20497;-34
2021/12/12 13:42:09;;;;;;;68.67;39.93;;;8.10;87.00;;;;;;5184790;28;20045;-33
2021/12/12 13:44:50;;;;;;;67.67;39.27;;;8.10;87.10;;;;;;5185856;28;20046;-38
2021/12/12 13:47:43;;;;;;;66.97;39.03;;;8.10;87.20;;;;;;5184446;28;20057;-40
2021/12/12 13:50:27;;;;;;;64.90;37.63;;;8.10;88.20;;;;;;5185490;28;20722;-32
2021/12/12 13:53:24;;;;;;;67.40;41.57;;;8.10;88.00;;;;;;5182898;28;20108;-32
2021/12/12 13:56:21;;;;;;;62.70;37.17;;;8.10;87.60;;;;;;5185554;28;20037;-41
2021/12/12 13:58:55;;;;;;;69.40;39.53;;;8.10;87.80;;;;;;5184760;28;20121;-36
2021/12/12 14:01:37;;;;;;;76.27;43.13;;;8.10;87.70;;;;;;5186345;28;20091;-36
2021/12/12 14:04:32;;;;;;;72.13;42.10;;;8.10;87.90;;;;;;5185219;28;20121;-39
2021/12/12 14:07:05;;;;;;;76.47;43.17;;;8.10;87.70;;;;;;5182454;28;20137;-30